sensor_id;sensor_type;location;lat;lon;timestamp;temperature;humidity
47626;DHT22;33342;45.574;9.252;2022-09-02T00:01:20;26.50;99.90
47626;DHT22;33342;45.574;9.252;2022-09-02T00:03:51;26.40;99.90
47626;DHT22;33342;45.574;9.252;2022-09-02T00:06:21;26.40;99.90
47626;DHT22;33342;45.574;9.252;2022-09-02T00:08:48;26.40;99.90
47626;DHT22;33342;45.574;9.252;2022-09-02T00:11:22;26.40;99.90
47626;DHT22;33342;45.574;9.252;2022-09-02T00:13:50;26.40;99.90
47626;DHT22;33342;45.574;9.252;2022-09-02T00:16:18;26.40;99.90
47626;DHT22;33342;45.574;9.252;2022-09-02T00:18:45;26.40;99.90
47626;DHT22;33342;45.574;9.252;2022-09-02T00:21:14;26.30;99.90
47626;DHT22;33342;45.574;9.252;2022-09-02T00:23:43;26.30;99.90
47626;DHT22;33342;45.574;9.252;2022-09-02T00:26:11;26.40;99.90
47626;DHT22;33342;45.574;9.252;2022-09-02T00:28:39;26.40;99.90
47626;DHT22;33342;45.574;9.252;2022-09-02T00:31:15;26.30;99.90
47626;DHT22;33342;45.574;9.252;2022-09-02T00:33:43;26.30;99.90
47626;DHT22;33342;45.574;9.252;2022-09-02T00:36:11;26.30;99.90
47626;DHT22;33342;45.574;9.252;2022-09-02T00:38:39;26.30;99.90
47626;DHT22;33342;45.574;9.252;2022-09-02T00:41:09;26.30;99.90
47626;DHT22;33342;45.574;9.252;2022-09-02T00:46:23;26.30;99.90
47626;DHT22;33342;45.574;9.252;2022-09-02T00:49:05;26.30;99.90
47626;DHT22;33342;45.574;9.252;2022-09-02T00:54:31;26.30;99.90
47626;DHT22;33342;45.574;9.252;2022-09-02T00:57:03;26.20;99.90
47626;DHT22;33342;45.574;9.252;2022-09-02T01:02:22;26.20;99.90
47626;DHT22;33342;45.574;9.252;2022-09-02T01:04:51;26.20;99.90
47626;DHT22;33342;45.574;9.252;2022-09-02T01:07:23;26.20;99.90
47626;DHT22;33342;45.574;9.252;2022-09-02T01:09:53;26.20;99.90
47626;DHT22;33342;45.574;9.252;2022-09-02T01:12:22;26.20;99.90
47626;DHT22;33342;45.574;9.252;2022-09-02T01:14:50;26.20;99.90
47626;DHT22;33342;45.574;9.252;2022-09-02T01:17:18;26.10;99.90
47626;DHT22;33342;45.574;9.252;2022-09-02T01:19:49;26.10;99.90
47626;DHT22;33342;45.574;9.252;2022-09-02T01:22:23;26.10;99.90
47626;DHT22;33342;45.574;9.252;2022-09-02T01:24:52;26.10;99.90
47626;DHT22;33342;45.574;9.252;2022-09-02T01:27:22;26.10;99.90
47626;DHT22;33342;45.574;9.252;2022-09-02T01:29:54;26.00;99.90
47626;DHT22;33342;45.574;9.252;2022-09-02T01:32:25;26.00;99.90
47626;DHT22;33342;45.574;9.252;2022-09-02T01:34:53;26.00;99.90
47626;DHT22;33342;45.574;9.252;2022-09-02T01:37:21;26.00;99.90
47626;DHT22;33342;45.574;9.252;2022-09-02T01:39:48;26.00;99.90
47626;DHT22;33342;45.574;9.252;2022-09-02T01:42:19;26.00;99.90
47626;DHT22;33342;45.574;9.252;2022-09-02T01:44:47;26.00;99.90
47626;DHT22;33342;45.574;9.252;2022-09-02T01:47:18;26.00;99.90
47626;DHT22;33342;45.574;9.252;2022-09-02T01:49:46;26.00;99.90
47626;DHT22;33342;45.574;9.252;2022-09-02T01:52:14;25.90;99.90
47626;DHT22;33342;45.574;9.252;2022-09-02T01:54:42;25.90;99.90
47626;DHT22;33342;45.574;9.252;2022-09-02T01:57:11;25.90;99.90
47626;DHT22;33342;45.574;9.252;2022-09-02T01:59:38;25.90;99.90
47626;DHT22;33342;45.574;9.252;2022-09-02T02:02:06;25.90;99.90
47626;DHT22;33342;45.574;9.252;2022-09-02T02:04:33;25.90;99.90
47626;DHT22;33342;45.574;9.252;2022-09-02T02:07:03;25.90;99.90
47626;DHT22;33342;45.574;9.252;2022-09-02T02:09:31;25.90;99.90
47626;DHT22;33342;45.574;9.252;2022-09-02T02:11:58;25.90;99.90
47626;DHT22;33342;45.574;9.252;2022-09-02T02:14:27;25.90;99.90
47626;DHT22;33342;45.574;9.252;2022-09-02T02:16:54;25.90;99.90
47626;DHT22;33342;45.574;9.252;2022-09-02T02:19:21;25.90;99.90
47626;DHT22;33342;45.574;9.252;2022-09-02T02:21:48;25.90;99.90
47626;DHT22;33342;45.574;9.252;2022-09-02T02:24:15;25.90;99.90
47626;DHT22;33342;45.574;9.252;2022-09-02T02:26:43;25.90;99.90
47626;DHT22;33342;45.574;9.252;2022-09-02T02:29:10;25.90;99.90
47626;DHT22;33342;45.574;9.252;2022-09-02T02:31:39;25.90;99.90
47626;DHT22;33342;45.574;9.252;2022-09-02T02:34:07;25.90;99.90
47626;DHT22;33342;45.574;9.252;2022-09-02T02:36:34;25.90;99.90
47626;DHT22;33342;45.574;9.252;2022-09-02T02:39:02;25.90;99.90
47626;DHT22;33342;45.574;9.252;2022-09-02T02:41:30;25.90;99.90
47626;DHT22;33342;45.574;9.252;2022-09-02T02:43:58;25.80;99.90
47626;DHT22;33342;45.574;9.252;2022-09-02T02:46:26;25.80;99.90
47626;DHT22;33342;45.574;9.252;2022-09-02T02:49:01;25.80;99.90
47626;DHT22;33342;45.574;9.252;2022-09-02T02:51:29;25.80;99.90
47626;DHT22;33342;45.574;9.252;2022-09-02T02:53:56;25.80;99.90
47626;DHT22;33342;45.574;9.252;2022-09-02T02:56:26;25.80;99.90
47626;DHT22;33342;45.574;9.252;2022-09-02T02:58:57;25.80;99.90
47626;DHT22;33342;45.574;9.252;2022-09-02T03:01:27;25.80;99.90
47626;DHT22;33342;45.574;9.252;2022-09-02T03:03:55;25.80;99.90
47626;DHT22;33342;45.574;9.252;2022-09-02T03:06:23;25.80;99.90
47626;DHT22;33342;45.574;9.252;2022-09-02T03:08:53;25.80;99.90
47626;DHT22;33342;45.574;9.252;2022-09-02T03:11:21;25.80;99.90
47626;DHT22;33342;45.574;9.252;2022-09-02T03:13:50;25.80;99.90
47626;DHT22;33342;45.574;9.252;2022-09-02T03:16:20;25.80;99.90
47626;DHT22;33342;45.574;9.252;2022-09-02T03:18:48;25.80;99.90
47626;DHT22;33342;45.574;9.252;2022-09-02T03:21:17;25.80;99.90
47626;DHT22;33342;45.574;9.252;2022-09-02T03:23:45;25.80;99.90
47626;DHT22;33342;45.574;9.252;2022-09-02T03:26:18;25.70;99.90
47626;DHT22;33342;45.574;9.252;2022-09-02T03:28:47;25.70;99.90
47626;DHT22;33342;45.574;9.252;2022-09-02T03:31:18;25.70;99.90
47626;DHT22;33342;45.574;9.252;2022-09-02T03:33:45;25.70;99.90
47626;DHT22;33342;45.574;9.252;2022-09-02T03:36:24;25.70;99.90
47626;DHT22;33342;45.574;9.252;2022-09-02T03:38:53;25.70;99.90
47626;DHT22;33342;45.574;9.252;2022-09-02T03:41:24;25.70;99.90
47626;DHT22;33342;45.574;9.252;2022-09-02T03:43:53;25.70;99.90
47626;DHT22;33342;45.574;9.252;2022-09-02T03:46:20;25.70;99.90
47626;DHT22;33342;45.574;9.252;2022-09-02T03:48:48;25.70;99.90
47626;DHT22;33342;45.574;9.252;2022-09-02T03:51:19;25.60;99.90
47626;DHT22;33342;45.574;9.252;2022-09-02T03:53:47;25.60;99.90
47626;DHT22;33342;45.574;9.252;2022-09-02T03:56:15;25.60;99.90
47626;DHT22;33342;45.574;9.252;2022-09-02T03:58:44;25.60;99.90
47626;DHT22;33342;45.574;9.252;2022-09-02T04:01:14;25.60;99.90
47626;DHT22;33342;45.574;9.252;2022-09-02T04:03:42;25.60;99.90
47626;DHT22;33342;45.574;9.252;2022-09-02T04:06:12;25.60;99.90
47626;DHT22;33342;45.574;9.252;2022-09-02T04:08:41;25.50;99.90
47626;DHT22;33342;45.574;9.252;2022-09-02T04:11:16;25.50;99.90
47626;DHT22;33342;45.574;9.252;2022-09-02T04:13:47;25.50;99.90
47626;DHT22;33342;45.574;9.252;2022-09-02T04:16:20;25.50;99.90
47626;DHT22;33342;45.574;9.252;2022-09-02T04:18:57;25.50;99.90
47626;DHT22;33342;45.574;9.252;2022-09-02T04:21:27;25.50;99.90
47626;DHT22;33342;45.574;9.252;2022-09-02T04:23:55;25.50;99.90
47626;DHT22;33342;45.574;9.252;2022-09-02T04:26:23;25.40;99.90
47626;DHT22;33342;45.574;9.252;2022-09-02T04:28:53;25.40;99.90
47626;DHT22;33342;45.574;9.252;2022-09-02T04:31:23;25.40;99.90
47626;DHT22;33342;45.574;9.252;2022-09-02T04:33:58;25.40;99.90
47626;DHT22;33342;45.574;9.252;2022-09-02T04:36:26;25.40;99.90
47626;DHT22;33342;45.574;9.252;2022-09-02T04:38:58;25.40;99.90
47626;DHT22;33342;45.574;9.252;2022-09-02T04:41:30;25.40;99.90
47626;DHT22;33342;45.574;9.252;2022-09-02T04:44:01;25.40;99.90
47626;DHT22;33342;45.574;9.252;2022-09-02T04:46:33;25.30;99.90
47626;DHT22;33342;45.574;9.252;2022-09-02T04:49:05;25.30;99.90
47626;DHT22;33342;45.574;9.252;2022-09-02T04:51:32;25.30;99.90
47626;DHT22;33342;45.574;9.252;2022-09-02T04:54:03;25.30;99.90
47626;DHT22;33342;45.574;9.252;2022-09-02T04:56:30;25.30;99.90
47626;DHT22;33342;45.574;9.252;2022-09-02T04:59:03;25.30;99.90
47626;DHT22;33342;45.574;9.252;2022-09-02T05:01:33;25.20;99.90
47626;DHT22;33342;45.574;9.252;2022-09-02T05:04:07;25.20;99.90
47626;DHT22;33342;45.574;9.252;2022-09-02T05:06:40;25.20;99.90
47626;DHT22;33342;45.574;9.252;2022-09-02T05:09:14;25.20;99.90
47626;DHT22;33342;45.574;9.252;2022-09-02T05:11:43;25.20;99.90
47626;DHT22;33342;45.574;9.252;2022-09-02T05:14:13;25.10;99.90
47626;DHT22;33342;45.574;9.252;2022-09-02T05:16:42;25.10;99.90
47626;DHT22;33342;45.574;9.252;2022-09-02T05:19:14;25.10;99.90
47626;DHT22;33342;45.574;9.252;2022-09-02T05:21:46;25.10;99.90
47626;DHT22;33342;45.574;9.252;2022-09-02T05:24:21;25.10;99.90
47626;DHT22;33342;45.574;9.252;2022-09-02T05:26:54;25.10;99.90
47626;DHT22;33342;45.574;9.252;2022-09-02T05:29:21;25.10;99.90
47626;DHT22;33342;45.574;9.252;2022-09-02T05:31:50;25.20;99.90
47626;DHT22;33342;45.574;9.252;2022-09-02T05:34:20;25.20;99.90
47626;DHT22;33342;45.574;9.252;2022-09-02T05:36:50;25.20;99.90
47626;DHT22;33342;45.574;9.252;2022-09-02T05:39:17;25.20;99.90
47626;DHT22;33342;45.574;9.252;2022-09-02T05:41:46;25.20;99.90
47626;DHT22;33342;45.574;9.252;2022-09-02T05:44:14;25.10;99.90
47626;DHT22;33342;45.574;9.252;2022-09-02T05:46:43;25.20;99.90
47626;DHT22;33342;45.574;9.252;2022-09-02T05:49:15;25.20;99.90
47626;DHT22;33342;45.574;9.252;2022-09-02T05:51:59;25.20;99.90
47626;DHT22;33342;45.574;9.252;2022-09-02T05:54:34;25.20;99.90
47626;DHT22;33342;45.574;9.252;2022-09-02T05:57:10;25.20;99.90
47626;DHT22;33342;45.574;9.252;2022-09-02T05:59:43;25.10;99.90
47626;DHT22;33342;45.574;9.252;2022-09-02T06:02:17;25.20;99.90
47626;DHT22;33342;45.574;9.252;2022-09-02T06:04:47;25.20;99.90
47626;DHT22;33342;45.574;9.252;2022-09-02T06:07:17;25.20;99.90
47626;DHT22;33342;45.574;9.252;2022-09-02T06:09:47;25.20;99.90
47626;DHT22;33342;45.574;9.252;2022-09-02T06:12:18;25.20;99.90
47626;DHT22;33342;45.574;9.252;2022-09-02T06:14:47;25.20;99.90
47626;DHT22;33342;45.574;9.252;2022-09-02T06:17:17;25.20;99.90
47626;DHT22;33342;45.574;9.252;2022-09-02T06:19:48;25.20;99.90
47626;DHT22;33342;45.574;9.252;2022-09-02T06:22:21;25.20;99.90
47626;DHT22;33342;45.574;9.252;2022-09-02T06:24:49;25.20;99.90
47626;DHT22;33342;45.574;9.252;2022-09-02T06:27:20;25.20;99.90
47626;DHT22;33342;45.574;9.252;2022-09-02T06:29:50;25.20;99.90
47626;DHT22;33342;45.574;9.252;2022-09-02T06:32:20;25.20;99.90
47626;DHT22;33342;45.574;9.252;2022-09-02T06:34:52;25.20;99.90
47626;DHT22;33342;45.574;9.252;2022-09-02T06:37:20;25.20;99.90
47626;DHT22;33342;45.574;9.252;2022-09-02T06:39:49;25.20;99.90
47626;DHT22;33342;45.574;9.252;2022-09-02T06:42:21;25.20;99.90
47626;DHT22;33342;45.574;9.252;2022-09-02T06:45:08;25.20;99.90
47626;DHT22;33342;45.574;9.252;2022-09-02T06:47:36;25.20;99.90
47626;DHT22;33342;45.574;9.252;2022-09-02T06:50:04;25.20;99.90
47626;DHT22;33342;45.574;9.252;2022-09-02T06:52:31;25.30;99.90
47626;DHT22;33342;45.574;9.252;2022-09-02T06:54:59;25.30;99.90
47626;DHT22;33342;45.574;9.252;2022-09-02T06:57:27;25.30;99.90
47626;DHT22;33342;45.574;9.252;2022-09-02T07:00:08;25.40;99.90
47626;DHT22;33342;45.574;9.252;2022-09-02T07:02:37;25.40;99.90
47626;DHT22;33342;45.574;9.252;2022-09-02T07:05:04;25.40;99.90
47626;DHT22;33342;45.574;9.252;2022-09-02T07:07:42;25.40;99.90
47626;DHT22;33342;45.574;9.252;2022-09-02T07:10:14;25.50;99.90
47626;DHT22;33342;45.574;9.252;2022-09-02T07:12:46;25.50;99.90
47626;DHT22;33342;45.574;9.252;2022-09-02T07:15:16;25.50;99.90
47626;DHT22;33342;45.574;9.252;2022-09-02T07:17:43;25.50;99.90
47626;DHT22;33342;45.574;9.252;2022-09-02T07:20:16;25.50;99.90
47626;DHT22;33342;45.574;9.252;2022-09-02T07:22:52;25.60;99.90
47626;DHT22;33342;45.574;9.252;2022-09-02T07:25:21;25.60;99.90
47626;DHT22;33342;45.574;9.252;2022-09-02T07:27:50;25.60;99.90
47626;DHT22;33342;45.574;9.252;2022-09-02T07:30:18;25.60;99.90
47626;DHT22;33342;45.574;9.252;2022-09-02T07:32:50;25.70;99.90
47626;DHT22;33342;45.574;9.252;2022-09-02T07:35:21;25.70;99.90
47626;DHT22;33342;45.574;9.252;2022-09-02T07:37:49;25.70;99.90
47626;DHT22;33342;45.574;9.252;2022-09-02T07:40:18;25.70;99.90
47626;DHT22;33342;45.574;9.252;2022-09-02T07:42:46;25.70;99.90
47626;DHT22;33342;45.574;9.252;2022-09-02T07:45:14;25.80;99.90
47626;DHT22;33342;45.574;9.252;2022-09-02T07:47:44;25.70;99.90
47626;DHT22;33342;45.574;9.252;2022-09-02T07:50:13;25.70;99.90
47626;DHT22;33342;45.574;9.252;2022-09-02T07:52:49;25.80;99.90
47626;DHT22;33342;45.574;9.252;2022-09-02T07:55:17;25.80;99.90
47626;DHT22;33342;45.574;9.252;2022-09-02T07:57:44;25.80;99.90
47626;DHT22;33342;45.574;9.252;2022-09-02T08:00:13;25.80;99.90
47626;DHT22;33342;45.574;9.252;2022-09-02T08:02:41;25.80;99.90
47626;DHT22;33342;45.574;9.252;2022-09-02T08:05:12;25.80;99.90
47626;DHT22;33342;45.574;9.252;2022-09-02T08:07:39;25.80;99.90
47626;DHT22;33342;45.574;9.252;2022-09-02T08:10:07;25.80;99.90
47626;DHT22;33342;45.574;9.252;2022-09-02T08:12:36;25.80;99.90
47626;DHT22;33342;45.574;9.252;2022-09-02T08:15:04;25.80;99.90
47626;DHT22;33342;45.574;9.252;2022-09-02T08:17:31;25.80;99.90
47626;DHT22;33342;45.574;9.252;2022-09-02T08:20:01;25.80;99.90
47626;DHT22;33342;45.574;9.252;2022-09-02T08:22:32;25.80;99.90
47626;DHT22;33342;45.574;9.252;2022-09-02T08:25:01;25.80;99.90
47626;DHT22;33342;45.574;9.252;2022-09-02T08:27:28;25.80;99.90
47626;DHT22;33342;45.574;9.252;2022-09-02T08:29:56;25.90;99.90
47626;DHT22;33342;45.574;9.252;2022-09-02T08:32:23;25.90;99.90
47626;DHT22;33342;45.574;9.252;2022-09-02T08:34:50;25.90;99.90
47626;DHT22;33342;45.574;9.252;2022-09-02T08:37:17;25.90;99.90
47626;DHT22;33342;45.574;9.252;2022-09-02T08:39:46;25.90;99.90
47626;DHT22;33342;45.574;9.252;2022-09-02T08:44:59;25.90;99.90
47626;DHT22;33342;45.574;9.252;2022-09-02T08:47:34;25.90;99.90
47626;DHT22;33342;45.574;9.252;2022-09-02T08:50:09;25.90;99.90
47626;DHT22;33342;45.574;9.252;2022-09-02T08:52:53;26.00;99.90
47626;DHT22;33342;45.574;9.252;2022-09-02T08:55:28;26.00;99.90
47626;DHT22;33342;45.574;9.252;2022-09-02T08:57:59;26.00;99.90
47626;DHT22;33342;45.574;9.252;2022-09-02T09:00:31;26.00;99.90
47626;DHT22;33342;45.574;9.252;2022-09-02T09:03:15;26.10;99.90
47626;DHT22;33342;45.574;9.252;2022-09-02T09:06:11;26.10;99.90
47626;DHT22;33342;45.574;9.252;2022-09-02T09:09:03;26.10;99.90
47626;DHT22;33342;45.574;9.252;2022-09-02T09:11:43;26.10;99.90
47626;DHT22;33342;45.574;9.252;2022-09-02T09:15:02;26.10;99.90
47626;DHT22;33342;45.574;9.252;2022-09-02T09:17:43;26.10;99.90
47626;DHT22;33342;45.574;9.252;2022-09-02T09:20:18;26.10;99.90
47626;DHT22;33342;45.574;9.252;2022-09-02T09:22:48;26.10;99.90
47626;DHT22;33342;45.574;9.252;2022-09-02T09:25:16;26.20;99.90
47626;DHT22;33342;45.574;9.252;2022-09-02T09:27:44;26.20;99.90
47626;DHT22;33342;45.574;9.252;2022-09-02T09:30:12;26.10;99.90
47626;DHT22;33342;45.574;9.252;2022-09-02T09:32:45;26.10;99.90
47626;DHT22;33342;45.574;9.252;2022-09-02T09:35:17;26.10;99.90
47626;DHT22;33342;45.574;9.252;2022-09-02T09:37:51;26.10;99.90
47626;DHT22;33342;45.574;9.252;2022-09-02T09:50:44;26.20;99.90
47626;DHT22;33342;45.574;9.252;2022-09-02T09:53:25;26.20;99.90
47626;DHT22;33342;45.574;9.252;2022-09-02T09:58:41;26.30;99.90
47626;DHT22;33342;45.574;9.252;2022-09-02T10:01:18;26.30;99.90
47626;DHT22;33342;45.574;9.252;2022-09-02T10:09:02;26.50;99.90
47626;DHT22;33342;45.574;9.252;2022-09-02T10:11:37;26.50;99.90
47626;DHT22;33342;45.574;9.252;2022-09-02T10:14:06;26.60;99.90
47626;DHT22;33342;45.574;9.252;2022-09-02T10:17:02;26.60;99.90
47626;DHT22;33342;45.574;9.252;2022-09-02T10:22:56;26.60;99.90
47626;DHT22;33342;45.574;9.252;2022-09-02T10:45:23;26.70;99.90
47626;DHT22;33342;45.574;9.252;2022-09-02T10:50:39;26.80;99.90
47626;DHT22;33342;45.574;9.252;2022-09-02T10:56:02;26.80;99.90
47626;DHT22;33342;45.574;9.252;2022-09-02T10:58:44;26.70;99.90
47626;DHT22;33342;45.574;9.252;2022-09-02T11:06:36;26.70;99.90
47626;DHT22;33342;45.574;9.252;2022-09-02T11:09:41;26.70;99.90
47626;DHT22;33342;45.574;9.252;2022-09-02T11:12:28;26.80;99.90
47626;DHT22;33342;45.574;9.252;2022-09-02T11:17:35;26.80;99.90
47626;DHT22;33342;45.574;9.252;2022-09-02T11:23:12;26.80;99.90
47626;DHT22;33342;45.574;9.252;2022-09-02T11:31:04;26.90;99.90
47626;DHT22;33342;45.574;9.252;2022-09-02T11:33:57;27.00;99.90
47626;DHT22;33342;45.574;9.252;2022-09-02T11:36:37;27.00;99.90
47626;DHT22;33342;45.574;9.252;2022-09-02T11:39:31;27.10;99.90
47626;DHT22;33342;45.574;9.252;2022-09-02T11:42:38;27.10;99.90
47626;DHT22;33342;45.574;9.252;2022-09-02T11:45:22;27.10;99.90
47626;DHT22;33342;45.574;9.252;2022-09-02T11:53:37;27.00;99.90
47626;DHT22;33342;45.574;9.252;2022-09-02T11:56:17;27.00;99.90
47626;DHT22;33342;45.574;9.252;2022-09-02T11:58:49;27.00;99.90
47626;DHT22;33342;45.574;9.252;2022-09-02T12:01:38;27.10;99.90
47626;DHT22;33342;45.574;9.252;2022-09-02T12:09:50;27.20;99.90
47626;DHT22;33342;45.574;9.252;2022-09-02T12:20:10;27.40;99.90
47626;DHT22;33342;45.574;9.252;2022-09-02T12:22:40;27.40;99.90
47626;DHT22;33342;45.574;9.252;2022-09-02T12:28:21;27.50;99.90
47626;DHT22;33342;45.574;9.252;2022-09-02T12:33:39;27.60;99.90
47626;DHT22;33342;45.574;9.252;2022-09-02T12:36:08;27.60;99.90
47626;DHT22;33342;45.574;9.252;2022-09-02T12:38:40;27.60;99.90
47626;DHT22;33342;45.574;9.252;2022-09-02T12:41:28;27.70;99.90
47626;DHT22;33342;45.574;9.252;2022-09-02T12:44:08;27.70;99.90
47626;DHT22;33342;45.574;9.252;2022-09-02T12:46:55;27.80;99.90
47626;DHT22;33342;45.574;9.252;2022-09-02T12:51:59;27.90;99.90
47626;DHT22;33342;45.574;9.252;2022-09-02T12:54:46;27.80;99.90
47626;DHT22;33342;45.574;9.252;2022-09-02T12:57:16;27.90;99.90
47626;DHT22;33342;45.574;9.252;2022-09-02T12:59:45;27.90;99.90
47626;DHT22;33342;45.574;9.252;2022-09-02T13:02:48;27.90;99.90
47626;DHT22;33342;45.574;9.252;2022-09-02T13:33:11;28.40;99.90
47626;DHT22;33342;45.574;9.252;2022-09-02T13:35:39;28.50;99.90
47626;DHT22;33342;45.574;9.252;2022-09-02T13:38:11;28.60;99.90
47626;DHT22;33342;45.574;9.252;2022-09-02T13:40:39;28.70;99.90
47626;DHT22;33342;45.574;9.252;2022-09-02T13:45:38;28.80;99.90
47626;DHT22;33342;45.574;9.252;2022-09-02T13:48:29;28.90;99.90
47626;DHT22;33342;45.574;9.252;2022-09-02T13:50:56;29.00;99.90
47626;DHT22;33342;45.574;9.252;2022-09-02T13:53:37;29.10;99.90
47626;DHT22;33342;45.574;9.252;2022-09-02T13:56:27;29.10;99.90
47626;DHT22;33342;45.574;9.252;2022-09-02T13:58:56;29.00;99.90
47626;DHT22;33342;45.574;9.252;2022-09-02T14:01:31;29.00;99.90
47626;DHT22;33342;45.574;9.252;2022-09-02T14:04:02;29.00;99.90
47626;DHT22;33342;45.574;9.252;2022-09-02T14:06:34;29.00;99.90
47626;DHT22;33342;45.574;9.252;2022-09-02T14:09:10;29.10;99.90
47626;DHT22;33342;45.574;9.252;2022-09-02T14:11:44;29.10;99.90
47626;DHT22;33342;45.574;9.252;2022-09-02T14:14:17;29.20;99.90
47626;DHT22;33342;45.574;9.252;2022-09-02T14:16:45;29.30;99.90
47626;DHT22;33342;45.574;9.252;2022-09-02T14:24:17;29.50;99.90
47626;DHT22;33342;45.574;9.252;2022-09-02T14:26:46;29.50;99.90
47626;DHT22;33342;45.574;9.252;2022-09-02T14:29:17;29.60;99.90
47626;DHT22;33342;45.574;9.252;2022-09-02T14:31:46;29.60;99.90
47626;DHT22;33342;45.574;9.252;2022-09-02T14:34:35;29.70;99.90
47626;DHT22;33342;45.574;9.252;2022-09-02T14:37:22;29.80;99.90
47626;DHT22;33342;45.574;9.252;2022-09-02T14:40:10;30.00;99.90
47626;DHT22;33342;45.574;9.252;2022-09-02T14:42:56;30.20;99.90
47626;DHT22;33342;45.574;9.252;2022-09-02T14:47:55;30.40;99.90
47626;DHT22;33342;45.574;9.252;2022-09-02T14:50:29;30.50;99.90
47626;DHT22;33342;45.574;9.252;2022-09-02T14:53:02;30.60;99.90
47626;DHT22;33342;45.574;9.252;2022-09-02T14:55:50;30.70;99.90
47626;DHT22;33342;45.574;9.252;2022-09-02T14:58:22;30.90;99.90
47626;DHT22;33342;45.574;9.252;2022-09-02T15:00:58;30.90;99.90
47626;DHT22;33342;45.574;9.252;2022-09-02T15:03:28;31.00;99.90
47626;DHT22;33342;45.574;9.252;2022-09-02T15:05:55;31.10;99.90
47626;DHT22;33342;45.574;9.252;2022-09-02T15:08:23;31.30;99.90
47626;DHT22;33342;45.574;9.252;2022-09-02T15:10:52;31.70;99.90
47626;DHT22;33342;45.574;9.252;2022-09-02T15:13:28;32.30;99.90
47626;DHT22;33342;45.574;9.252;2022-09-02T15:15:59;32.70;99.90
47626;DHT22;33342;45.574;9.252;2022-09-02T15:18:26;32.90;99.90
47626;DHT22;33342;45.574;9.252;2022-09-02T15:20:53;33.20;99.90
47626;DHT22;33342;45.574;9.252;2022-09-02T15:23:20;33.80;99.90
47626;DHT22;33342;45.574;9.252;2022-09-02T15:25:47;34.40;99.90
47626;DHT22;33342;45.574;9.252;2022-09-02T15:28:14;35.00;99.90
47626;DHT22;33342;45.574;9.252;2022-09-02T15:30:42;35.60;99.90
47626;DHT22;33342;45.574;9.252;2022-09-02T15:33:09;36.00;99.90
47626;DHT22;33342;45.574;9.252;2022-09-02T15:35:45;36.20;99.90
47626;DHT22;33342;45.574;9.252;2022-09-02T15:38:13;36.10;99.90
47626;DHT22;33342;45.574;9.252;2022-09-02T15:40:40;36.10;99.90
47626;DHT22;33342;45.574;9.252;2022-09-02T15:43:07;35.90;99.90
47626;DHT22;33342;45.574;9.252;2022-09-02T15:45:43;35.50;99.90
47626;DHT22;33342;45.574;9.252;2022-09-02T15:48:11;35.20;99.90
47626;DHT22;33342;45.574;9.252;2022-09-02T15:50:38;34.60;99.90
47626;DHT22;33342;45.574;9.252;2022-09-02T15:53:05;34.00;99.90
47626;DHT22;33342;45.574;9.252;2022-09-02T15:55:33;33.70;99.90
47626;DHT22;33342;45.574;9.252;2022-09-02T15:58:00;33.20;99.90
47626;DHT22;33342;45.574;9.252;2022-09-02T16:00:28;33.00;99.90
47626;DHT22;33342;45.574;9.252;2022-09-02T16:02:58;32.60;99.90
47626;DHT22;33342;45.574;9.252;2022-09-02T16:05:26;32.40;99.90
47626;DHT22;33342;45.574;9.252;2022-09-02T16:07:53;32.20;99.90
47626;DHT22;33342;45.574;9.252;2022-09-02T16:10:21;32.20;99.90
47626;DHT22;33342;45.574;9.252;2022-09-02T16:12:48;32.30;99.90
47626;DHT22;33342;45.574;9.252;2022-09-02T16:15:15;32.50;99.90
47626;DHT22;33342;45.574;9.252;2022-09-02T16:17:42;32.60;99.90
47626;DHT22;33342;45.574;9.252;2022-09-02T16:20:09;32.60;99.90
47626;DHT22;33342;45.574;9.252;2022-09-02T16:22:37;32.50;99.90
47626;DHT22;33342;45.574;9.252;2022-09-02T16:25:04;32.30;99.90
47626;DHT22;33342;45.574;9.252;2022-09-02T16:27:32;32.10;99.90
47626;DHT22;33342;45.574;9.252;2022-09-02T16:30:18;32.00;99.90
47626;DHT22;33342;45.574;9.252;2022-09-02T16:32:45;31.90;99.90
47626;DHT22;33342;45.574;9.252;2022-09-02T16:35:13;31.70;99.90
47626;DHT22;33342;45.574;9.252;2022-09-02T16:37:41;31.50;99.90
47626;DHT22;33342;45.574;9.252;2022-09-02T16:40:09;31.30;99.90
47626;DHT22;33342;45.574;9.252;2022-09-02T16:42:37;31.20;99.90
47626;DHT22;33342;45.574;9.252;2022-09-02T16:45:04;31.00;99.90
47626;DHT22;33342;45.574;9.252;2022-09-02T16:47:32;30.80;99.90
47626;DHT22;33342;45.574;9.252;2022-09-02T16:50:00;30.70;99.90
47626;DHT22;33342;45.574;9.252;2022-09-02T16:52:27;30.50;99.90
47626;DHT22;33342;45.574;9.252;2022-09-02T16:54:54;30.40;99.90
47626;DHT22;33342;45.574;9.252;2022-09-02T16:57:21;30.30;99.90
47626;DHT22;33342;45.574;9.252;2022-09-02T16:59:51;30.20;99.90
47626;DHT22;33342;45.574;9.252;2022-09-02T17:02:18;30.10;99.90
47626;DHT22;33342;45.574;9.252;2022-09-02T17:04:45;30.00;99.90
47626;DHT22;33342;45.574;9.252;2022-09-02T17:07:12;29.90;99.90
47626;DHT22;33342;45.574;9.252;2022-09-02T17:09:40;29.80;99.90
47626;DHT22;33342;45.574;9.252;2022-09-02T17:12:07;29.80;99.90
47626;DHT22;33342;45.574;9.252;2022-09-02T17:14:35;29.70;99.90
47626;DHT22;33342;45.574;9.252;2022-09-02T17:17:02;29.60;99.90
47626;DHT22;33342;45.574;9.252;2022-09-02T17:19:29;29.60;99.90
47626;DHT22;33342;45.574;9.252;2022-09-02T17:21:58;29.50;99.90
47626;DHT22;33342;45.574;9.252;2022-09-02T17:24:28;29.30;99.90
47626;DHT22;33342;45.574;9.252;2022-09-02T17:26:57;29.30;99.90
47626;DHT22;33342;45.574;9.252;2022-09-02T17:29:26;29.20;99.90
47626;DHT22;33342;45.574;9.252;2022-09-02T17:32:15;29.10;99.90
47626;DHT22;33342;45.574;9.252;2022-09-02T17:34:44;29.00;99.90
47626;DHT22;33342;45.574;9.252;2022-09-02T17:37:11;29.00;99.90
47626;DHT22;33342;45.574;9.252;2022-09-02T17:39:38;29.00;99.90
47626;DHT22;33342;45.574;9.252;2022-09-02T17:42:05;28.90;99.90
47626;DHT22;33342;45.574;9.252;2022-09-02T17:44:37;28.80;99.90
47626;DHT22;33342;45.574;9.252;2022-09-02T17:47:20;28.80;99.90
47626;DHT22;33342;45.574;9.252;2022-09-02T17:49:47;28.70;99.90
47626;DHT22;33342;45.574;9.252;2022-09-02T17:52:17;28.70;99.90
47626;DHT22;33342;45.574;9.252;2022-09-02T17:54:49;28.60;99.90
47626;DHT22;33342;45.574;9.252;2022-09-02T17:57:37;28.60;99.90
47626;DHT22;33342;45.574;9.252;2022-09-02T18:00:17;28.50;99.90
47626;DHT22;33342;45.574;9.252;2022-09-02T18:03:14;28.50;99.90
47626;DHT22;33342;45.574;9.252;2022-09-02T18:11:05;28.40;99.90
47626;DHT22;33342;45.574;9.252;2022-09-02T18:19:45;28.30;99.90
47626;DHT22;33342;45.574;9.252;2022-09-02T18:28:07;28.20;99.90
47626;DHT22;33342;45.574;9.252;2022-09-02T18:30:53;28.20;99.90
47626;DHT22;33342;45.574;9.252;2022-09-02T18:47:08;28.10;99.90
47626;DHT22;33342;45.574;9.252;2022-09-02T18:49:38;28.10;99.90